Time;durP1;ratioP1;P1;durP2;ratioP2;P2;SDS_P1;SDS_P2;PMS_P1;PMS_P2;Temp;Humidity;BMP_temperature;BMP_pressure;BME280_temperature;BME280_humidity;BME280_pressure;Samples;Min_cycle;Max_cycle;Signal;HPM_P1;HPM_P2
2024/03/18 00:01:49;;;;;;;19.08;10.77;;;4.20;99.90;;;;;;20740937;28;20477;-40
2024/03/18 00:11:52;;;;;;;17.92;11.25;;;4.30;99.90;;;;;;20649780;28;20096;-41
2024/03/18 00:21:53;;;;;;;14.07;8.73;;;4.30;99.90;;;;;;20709697;28;20046;-42
2024/03/18 00:31:55;;;;;;;15.32;9.65;;;4.40;99.90;;;;;;20667199;28;20050;-42
2024/03/18 00:41:59;;;;;;;14.65;8.70;;;4.40;99.90;;;;;;20781553;28;20558;-42
2024/03/18 00:52:00;;;;;;;14.88;8.77;;;4.40;99.90;;;;;;20837290;28;20488;-42
2024/03/18 01:02:02;;;;;;;11.20;7.75;;;4.50;99.90;;;;;;20818450;28;20044;-40
2024/03/18 01:12:04;;;;;;;14.90;9.52;;;4.50;99.90;;;;;;20835619;28;20397;-41
2024/03/18 01:22:06;;;;;;;12.10;8.10;;;4.60;99.90;;;;;;20834432;28;20037;-43
2024/03/18 01:32:08;;;;;;;15.13;9.65;;;4.80;99.90;;;;;;20853729;28;20079;-41
2024/03/18 01:42:11;;;;;;;14.00;9.27;;;4.80;99.90;;;;;;20850788;28;20103;-41
2024/03/18 01:52:13;;;;;;;15.98;9.23;;;4.80;99.90;;;;;;20757183;28;20042;-42
2024/03/18 02:02:15;;;;;;;15.55;8.85;;;4.70;99.90;;;;;;20750140;28;20030;-42
2024/03/18 02:12:18;;;;;;;12.82;8.10;;;4.70;99.90;;;;;;20794854;28;20041;-43
2024/03/18 02:22:20;;;;;;;13.50;8.02;;;4.70;99.90;;;;;;20793555;28;20041;-40
2024/03/18 02:32:22;;;;;;;13.00;8.48;;;4.90;99.90;;;;;;20833274;28;20049;-41
2024/03/18 02:42:23;;;;;;;11.18;7.82;;;4.90;99.90;;;;;;20893064;28;20063;-40
2024/03/18 02:52:29;;;;;;;11.30;6.90;;;4.90;99.90;;;;;;20909401;28;20142;-41
2024/03/18 03:02:32;;;;;;;13.07;7.47;;;5.00;99.90;;;;;;20864685;28;20099;-40
2024/03/18 03:12:33;;;;;;;13.98;7.57;;;4.90;99.90;;;;;;20826520;28;20036;-41
2024/03/18 03:22:38;;;;;;;13.80;8.60;;;4.70;99.90;;;;;;20852322;28;20444;-42
2024/03/18 03:32:39;;;;;;;13.43;8.50;;;4.60;99.90;;;;;;20865627;28;20378;-39
2024/03/18 03:42:42;;;;;;;13.48;7.55;;;4.50;99.90;;;;;;20806538;28;20087;-42
2024/03/18 03:52:43;;;;;;;15.73;7.90;;;4.70;99.90;;;;;;20763615;28;20092;-41
2024/03/18 04:02:45;;;;;;;12.52;7.65;;;4.80;99.90;;;;;;20690860;28;20088;-42
2024/03/18 04:12:47;;;;;;;12.80;8.13;;;4.80;99.90;;;;;;20768113;28;20045;-42
2024/03/18 04:22:51;;;;;;;18.25;9.80;;;4.90;99.90;;;;;;20768987;28;20033;-40
2024/03/18 04:32:53;;;;;;;12.05;7.50;;;4.80;99.90;;;;;;20821738;28;20068;-41
2024/03/18 04:42:56;;;;;;;11.63;7.82;;;4.90;99.90;;;;;;20804006;28;20042;-40
2024/03/18 04:52:57;;;;;;;13.35;7.45;;;4.90;99.90;;;;;;20815054;28;20708;-42
2024/03/18 05:03:00;;;;;;;19.25;8.73;;;5.00;99.90;;;;;;20820876;28;20034;-41
2024/03/18 05:13:02;;;;;;;12.75;7.35;;;4.90;99.90;;;;;;20819994;28;20029;-41
2024/03/18 05:23:04;;;;;;;12.80;7.75;;;5.20;99.90;;;;;;20797533;28;20022;-40
2024/03/18 05:33:06;;;;;;;16.27;8.57;;;5.20;99.90;;;;;;20782985;28;20437;-43
2024/03/18 05:43:08;;;;;;;11.07;7.30;;;5.10;99.90;;;;;;20766586;28;20409;-41
2024/03/18 05:53:09;;;;;;;15.48;8.13;;;5.10;99.90;;;;;;20814220;28;20033;-40
2024/03/18 06:03:11;;;;;;;13.80;7.93;;;5.20;99.90;;;;;;20814161;28;20034;-40
2024/03/18 06:13:13;;;;;;;13.10;7.93;;;5.30;99.90;;;;;;20830324;28;20092;-41
2024/03/18 06:23:18;;;;;;;13.52;8.35;;;5.50;99.90;;;;;;20777940;28;20053;-44
2024/03/18 06:33:21;;;;;;;15.13;9.10;;;5.80;99.90;;;;;;20776241;28;20111;-42
2024/03/18 06:43:23;;;;;;;15.48;9.95;;;6.10;99.90;;;;;;20802535;28;21250;-42
2024/03/18 06:53:25;;;;;;;26.65;16.27;;;6.40;99.90;;;;;;20821903;28;20034;-44
2024/03/18 07:03:29;;;;;;;33.28;21.63;;;6.90;99.90;;;;;;20800645;28;20044;-42
2024/03/18 07:13:31;;;;;;;27.67;19.17;;;7.30;99.90;;;;;;20826294;28;20163;-43
2024/03/18 07:23:32;;;;;;;27.13;17.63;;;7.70;99.90;;;;;;20808482;28;20481;-43
2024/03/18 07:33:34;;;;;;;29.13;20.67;;;8.30;99.90;;;;;;20825336;28;20041;-41
2024/03/18 07:43:36;;;;;;;34.50;23.33;;;8.60;99.90;;;;;;20867072;28;20091;-41
2024/03/18 07:53:38;;;;;;;31.27;22.05;;;8.90;99.90;;;;;;20841415;28;20041;-44
2024/03/18 08:03:44;;;;;;;31.23;22.77;;;9.10;99.90;;;;;;20839812;28;20073;-46
2024/03/18 08:13:46;;;;;;;31.05;21.23;;;9.10;99.90;;;;;;20829622;28;20037;-43
2024/03/18 08:23:49;;;;;;;33.95;22.77;;;9.10;99.90;;;;;;20859276;28;20075;-45
2024/03/18 08:33:55;;;;;;;28.92;20.40;;;9.50;99.90;;;;;;20886284;28;20041;-47
2024/03/18 08:43:57;;;;;;;29.20;20.88;;;9.50;99.90;;;;;;20846329;28;20037;-42
2024/03/18 08:54:04;;;;;;;35.88;25.70;;;9.60;99.90;;;;;;20860993;28;20029;-41
2024/03/18 09:04:06;;;;;;;36.97;25.88;;;9.60;99.90;;;;;;20902316;28;20045;-43
2024/03/18 09:14:08;;;;;;;40.60;25.58;;;9.40;99.90;;;;;;20844573;28;20376;-43
2024/03/18 09:24:10;;;;;;;30.38;22.13;;;9.40;99.90;;;;;;20900561;28;20396;-43
2024/03/18 09:34:13;;;;;;;35.60;24.35;;;9.30;99.90;;;;;;20822870;28;20046;-42
2024/03/18 09:44:15;;;;;;;46.03;29.80;;;9.60;99.90;;;;;;20742793;28;20444;-42
2024/03/18 09:54:19;;;;;;;42.50;30.00;;;9.70;99.90;;;;;;20776856;28;20107;-44
2024/03/18 10:04:21;;;;;;;49.13;32.83;;;9.50;99.90;;;;;;20824930;28;20033;-43
2024/03/18 10:14:26;;;;;;;160.88;31.00;;;9.20;99.90;;;;;;20748400;28;20043;-47
2024/03/18 10:24:28;;;;;;;62.38;36.33;;;8.90;99.90;;;;;;20748398;28;20025;-43
2024/03/18 10:34:38;;;;;;;61.42;37.38;;;8.40;99.90;;;;;;20616304;28;20046;-43
2024/03/18 10:44:47;;;;;;;48.37;32.50;;;8.50;99.90;;;;;;20738082;28;20042;-40
2024/03/18 10:54:49;;;;;;;54.80;34.33;;;8.80;99.90;;;;;;20724138;28;20558;-43
2024/03/18 11:04:57;;;;;;;53.67;35.35;;;8.90;99.90;;;;;;20841661;28;20037;-40
2024/03/18 11:15:07;;;;;;;434.77;52.83;;;8.50;99.90;;;;;;20861562;28;20036;-41
2024/03/18 11:25:17;;;;;;;650.43;63.87;;;8.10;99.90;;;;;;20905749;28;20037;-43
2024/03/18 11:35:19;;;;;;;1025.60;81.95;;;8.00;99.90;;;;;;20892877;28;20451;-41
2024/03/18 11:45:22;;;;;;;409.10;46.65;;;8.20;99.90;;;;;;20884370;28;20042;-40
2024/03/18 11:55:25;;;;;;;198.65;37.92;;;8.20;99.90;;;;;;20841546;28;20025;-43
2024/03/18 12:05:27;;;;;;;196.85;41.00;;;8.20;99.90;;;;;;20839650;28;20063;-40
2024/03/18 12:15:29;;;;;;;45.88;30.23;;;8.40;99.90;;;;;;20837086;28;20819;-43
2024/03/18 12:35:55;;;;;;;89.72;34.40;;;8.40;99.90;;;;;;20813514;28;20038;-42
2024/03/18 12:46:02;;;;;;;404.27;44.97;;;8.40;99.90;;;;;;20838936;28;20083;-40
2024/03/18 12:56:05;;;;;;;417.10;47.85;;;8.20;99.90;;;;;;20834624;28;20088;-43
2024/03/18 13:06:07;;;;;;;663.22;57.50;;;7.90;99.90;;;;;;20816680;28;20057;-42
2024/03/18 13:16:15;;;;;;;565.45;59.92;;;7.70;99.90;;;;;;20834019;28;21475;-41
2024/03/18 13:26:17;;;;;;;388.88;45.47;;;7.60;99.90;;;;;;20831035;28;20036;-41
2024/03/18 13:36:19;;;;;;;1401.65;101.30;;;7.60;99.90;;;;;;20810246;28;20096;-44
2024/03/18 13:46:20;;;;;;;1143.28;84.47;;;7.50;99.90;;;;;;20787644;28;20089;-44
2024/03/18 13:56:22;;;;;;;276.17;44.53;;;7.70;99.90;;;;;;20867700;28;20041;-44
2024/03/18 14:06:24;;;;;;;206.68;40.45;;;7.90;99.90;;;;;;20835414;28;20049;-42
2024/03/18 14:16:27;;;;;;;51.55;29.58;;;8.20;99.90;;;;;;20793908;28;20041;-44
2024/03/18 14:26:31;;;;;;;41.22;26.40;;;8.60;99.90;;;;;;20807127;28;20030;-41
2024/03/18 14:36:36;;;;;;;62.55;32.15;;;8.20;99.90;;;;;;20825364;28;20045;-45
2024/03/18 14:46:38;;;;;;;52.13;28.77;;;7.80;99.90;;;;;;20575737;28;20077;-45
2024/03/18 14:56:40;;;;;;;114.60;32.00;;;7.70;99.90;;;;;;20622911;28;20039;-41
2024/03/18 15:06:43;;;;;;;698.80;47.58;;;7.50;99.90;;;;;;20633643;28;20047;-42
2024/03/18 15:16:44;;;;;;;181.05;31.20;;;7.20;99.90;;;;;;20808901;28;20047;-44
2024/03/18 15:37:06;;;;;;;271.73;45.07;;;6.90;99.90;;;;;;20905992;28;20170;-42
2024/03/18 15:47:10;;;;;;;551.50;54.15;;;7.00;99.90;;;;;;20840986;28;20087;-42
2024/03/18 15:57:11;;;;;;;1110.32;75.15;;;6.90;99.90;;;;;;20835930;28;20025;-45
2024/03/18 16:07:13;;;;;;;511.27;48.92;;;6.90;99.90;;;;;;20817488;28;20030;-41
2024/03/18 16:17:15;;;;;;;178.63;33.92;;;6.70;99.90;;;;;;20825488;28;20087;-43
2024/03/18 16:27:17;;;;;;;57.45;29.83;;;6.70;99.90;;;;;;20878687;28;20550;-41
2024/03/18 16:37:19;;;;;;;392.15;47.38;;;6.60;99.90;;;;;;20903968;28;20045;-44
2024/03/18 16:47:25;;;;;;;46.20;26.27;;;6.60;99.90;;;;;;20886946;28;20029;-43
2024/03/18 16:57:26;;;;;;;39.20;21.65;;;6.30;99.90;;;;;;20891019;28;20396;-41
2024/03/18 17:07:28;;;;;;;33.90;18.05;;;5.90;99.90;;;;;;20863684;28;20048;-41
2024/03/18 17:17:30;;;;;;;30.75;17.65;;;5.60;99.90;;;;;;20820197;28;20099;-40
2024/03/18 17:27:33;;;;;;;29.90;17.30;;;5.50;99.90;;;;;;20898360;28;20040;-42
2024/03/18 17:37:36;;;;;;;26.75;14.93;;;5.30;99.90;;;;;;20880183;28;20099;-40
2024/03/18 17:47:38;;;;;;;26.85;14.07;;;5.10;99.90;;;;;;20869882;28;20038;-40
2024/03/18 17:57:39;;;;;;;29.85;14.27;;;4.80;99.90;;;;;;20910492;28;20033;-42
2024/03/18 18:07:41;;;;;;;32.10;15.77;;;4.50;99.90;;;;;;20914595;28;20044;-40
2024/03/18 18:17:43;;;;;;;31.73;15.48;;;4.30;99.90;;;;;;20877811;28;20069;-44
2024/03/18 18:27:46;;;;;;;22.73;12.00;;;4.00;99.90;;;;;;20830306;28;20025;-41
2024/03/18 18:37:48;;;;;;;19.35;9.38;;;3.70;99.90;;;;;;20828456;28;20509;-40
2024/03/18 18:47:49;;;;;;;16.95;8.50;;;3.50;99.90;;;;;;20828238;28;20551;-41
2024/03/18 18:57:51;;;;;;;22.40;11.70;;;3.50;99.90;;;;;;20827769;28;20060;-41
2024/03/18 19:07:56;;;;;;;7.47;4.45;;;3.70;99.90;;;;;;20825424;28;20030;-44
2024/03/18 19:17:59;;;;;;;2.53;1.70;;;4.10;99.90;;;;;;20827020;28;20103;-44
2024/03/18 19:28:00;;;;;;;1.85;1.40;;;4.10;99.90;;;;;;20807411;28;20025;-41
2024/03/18 19:38:03;;;;;;;1.80;1.08;;;4.00;99.90;;;;;;20808588;28;20567;-46
2024/03/18 19:48:06;;;;;;;0.50;0.25;;;3.70;99.90;;;;;;20824640;28;20106;-44
2024/03/18 19:58:08;;;;;;;0.20;0.20;;;3.90;99.90;;;;;;20824042;28;20067;-44
2024/03/18 20:08:10;;;;;;;0.73;0.38;;;4.20;99.90;;;;;;20823119;28;20029;-42
2024/03/18 20:18:12;;;;;;;0.32;0.17;;;4.30;99.90;;;;;;20822739;28;20029;-40
2024/03/18 20:28:14;;;;;;;0.10;0.10;;;4.50;99.90;;;;;;20822763;28;20080;-41
2024/03/18 20:38:16;;;;;;;0.30;0.10;;;4.60;99.90;;;;;;20891355;28;20045;-42
2024/03/18 20:48:19;;;;;;;1.13;0.20;;;4.30;99.90;;;;;;20863337;28;20041;-40
2024/03/18 20:58:21;;;;;;;0.35;0.10;;;4.40;99.90;;;;;;20831470;28;20404;-41
2024/03/18 21:08:23;;;;;;;0.03;0.00;;;4.40;99.90;;;;;;20870153;28;20083;-40
2024/03/18 21:18:25;;;;;;;0.32;0.03;;;4.90;99.90;;;;;;20884210;28;20553;-41
2024/03/18 21:28:27;;;;;;;3.70;0.20;;;5.20;99.90;;;;;;20912010;28;20056;-44
2024/03/18 21:38:29;;;;;;;0.20;0.10;;;5.00;99.90;;;;;;20916890;28;20044;-40
2024/03/18 21:48:31;;;;;;;0.20;0.05;;;5.10;99.90;;;;;;20890166;28;20029;-40
2024/03/18 21:58:33;;;;;;;0.13;0.10;;;5.00;99.90;;;;;;20908856;28;20037;-39
2024/03/18 22:08:35;;;;;;;0.20;0.10;;;5.30;99.90;;;;;;20912718;28;20083;-39
2024/03/18 22:18:37;;;;;;;0.20;0.00;;;5.40;99.90;;;;;;20823863;28;20037;-41
2024/03/18 22:28:38;;;;;;;0.10;0.00;;;4.80;99.90;;;;;;20889758;28;20476;-39
2024/03/18 22:38:44;;;;;;;1.33;0.20;;;4.70;99.90;;;;;;20911734;28;20102;-41
2024/03/18 22:48:47;;;;;;;0.10;0.05;;;5.10;99.90;;;;;;20866881;28;20033;-40
2024/03/18 22:58:49;;;;;;;0.68;0.03;;;4.70;99.90;;;;;;20828026;28;20041;-39
2024/03/18 23:08:51;;;;;;;0.00;0.00;;;4.50;99.90;;;;;;20826828;28;20476;-40
2024/03/18 23:18:53;;;;;;;0.00;0.00;;;4.30;99.90;;;;;;20826486;28;20038;-40
2024/03/18 23:28:55;;;;;;;0.40;0.20;;;4.10;99.90;;;;;;20825291;28;20037;-39
2024/03/18 23:38:56;;;;;;;0.10;0.00;;;4.00;99.90;;;;;;20899389;28;20052;-39
2024/03/18 23:48:58;;;;;;;0.10;0.00;;;3.80;99.90;;;;;;20906676;28;20033;-39
2024/03/18 23:59:00;;;;;;;0.00;0.00;;;3.70;99.90;;;;;;20905349;28;20056;-39
